sensor_id;sensor_type;location;lat;lon;timestamp;pressure;altitude;pressure_sealevel;temperature;humidity
61086;BME280;46967;48.876;2.136;2024-02-26T00:00:35;98570.94;;;37.67;14.72
61086;BME280;46967;48.876;2.136;2024-02-26T00:03:01;98565.19;;;37.90;14.56
61086;BME280;46967;48.876;2.136;2024-02-26T00:05:26;98567.38;;;37.82;14.49
61086;BME280;46967;48.876;2.136;2024-02-26T00:07:52;98568.69;;;37.90;14.52
61086;BME280;46967;48.876;2.136;2024-02-26T00:10:17;98571.81;;;38.08;14.43
61086;BME280;46967;48.876;2.136;2024-02-26T00:12:43;98575.59;;;38.12;14.50
61086;BME280;46967;48.876;2.136;2024-02-26T00:15:09;98579.94;;;38.08;14.41
61086;BME280;46967;48.876;2.136;2024-02-26T00:17:35;98582.09;;;38.11;14.34
61086;BME280;46967;48.876;2.136;2024-02-26T00:20:01;98588.84;;;38.13;14.34
61086;BME280;46967;48.876;2.136;2024-02-26T00:22:29;98586.56;;;37.91;14.60
61086;BME280;46967;48.876;2.136;2024-02-26T00:24:54;98596.75;;;38.04;14.43
61086;BME280;46967;48.876;2.136;2024-02-26T00:27:20;98589.66;;;38.14;13.87
61086;BME280;46967;48.876;2.136;2024-02-26T00:29:45;98591.91;;;38.01;14.12
61086;BME280;46967;48.876;2.136;2024-02-26T00:32:10;98606.09;;;37.78;14.47
61086;BME280;46967;48.876;2.136;2024-02-26T00:34:36;98601.00;;;37.61;14.65
61086;BME280;46967;48.876;2.136;2024-02-26T00:37:01;98604.34;;;37.32;14.96
61086;BME280;46967;48.876;2.136;2024-02-26T00:39:27;98610.59;;;36.96;15.28
61086;BME280;46967;48.876;2.136;2024-02-26T00:41:52;98610.72;;;37.62;14.63
61086;BME280;46967;48.876;2.136;2024-02-26T00:44:17;98609.09;;;37.66;14.65
61086;BME280;46967;48.876;2.136;2024-02-26T00:46:43;98612.09;;;37.59;14.90
61086;BME280;46967;48.876;2.136;2024-02-26T00:49:08;98615.84;;;37.79;14.62
61086;BME280;46967;48.876;2.136;2024-02-26T00:51:33;98616.59;;;37.84;14.64
61086;BME280;46967;48.876;2.136;2024-02-26T00:53:59;98617.06;;;38.02;14.59
61086;BME280;46967;48.876;2.136;2024-02-26T00:56:24;98615.38;;;38.11;14.70
61086;BME280;46967;48.876;2.136;2024-02-26T00:58:49;98616.59;;;38.39;14.51
61086;BME280;46967;48.876;2.136;2024-02-26T01:01:15;98614.88;;;38.49;14.57
61086;BME280;46967;48.876;2.136;2024-02-26T01:03:40;98609.81;;;38.42;14.37
61086;BME280;46967;48.876;2.136;2024-02-26T01:06:05;98616.00;;;37.98;15.00
61086;BME280;46967;48.876;2.136;2024-02-26T01:08:30;98619.72;;;38.12;14.86
61086;BME280;46967;48.876;2.136;2024-02-26T01:10:57;98621.91;;;38.15;14.96
61086;BME280;46967;48.876;2.136;2024-02-26T01:13:22;98629.38;;;38.29;14.79
61086;BME280;46967;48.876;2.136;2024-02-26T01:15:47;98626.91;;;38.37;14.54
61086;BME280;46967;48.876;2.136;2024-02-26T01:18:13;98623.13;;;38.33;14.62
61086;BME280;46967;48.876;2.136;2024-02-26T01:20:38;98635.91;;;38.28;14.80
61086;BME280;46967;48.876;2.136;2024-02-26T01:23:03;98633.19;;;38.28;14.88
61086;BME280;46967;48.876;2.136;2024-02-26T01:25:29;98630.47;;;38.28;15.02
61086;BME280;46967;48.876;2.136;2024-02-26T01:27:54;98630.69;;;38.36;14.70
61086;BME280;46967;48.876;2.136;2024-02-26T01:30:19;98631.94;;;38.04;15.08
61086;BME280;46967;48.876;2.136;2024-02-26T01:32:45;98634.16;;;37.92;15.11
61086;BME280;46967;48.876;2.136;2024-02-26T01:35:10;98637.75;;;38.32;15.07
61086;BME280;46967;48.876;2.136;2024-02-26T01:37:37;98634.63;;;38.54;14.89
61086;BME280;46967;48.876;2.136;2024-02-26T01:40:05;98641.47;;;38.41;14.66
61086;BME280;46967;48.876;2.136;2024-02-26T01:42:32;98636.19;;;38.60;14.47
61086;BME280;46967;48.876;2.136;2024-02-26T01:44:58;98641.88;;;38.59;14.76
61086;BME280;46967;48.876;2.136;2024-02-26T01:47:23;98639.22;;;38.54;14.74
61086;BME280;46967;48.876;2.136;2024-02-26T01:49:49;98646.28;;;38.55;15.04
61086;BME280;46967;48.876;2.136;2024-02-26T01:52:14;98639.66;;;38.71;14.61
61086;BME280;46967;48.876;2.136;2024-02-26T01:54:42;98641.22;;;38.38;14.66
61086;BME280;46967;48.876;2.136;2024-02-26T01:57:10;98650.50;;;38.27;15.08
61086;BME280;46967;48.876;2.136;2024-02-26T01:59:36;98651.88;;;38.29;14.75
61086;BME280;46967;48.876;2.136;2024-02-26T02:02:03;98654.09;;;38.17;15.19
61086;BME280;46967;48.876;2.136;2024-02-26T02:04:30;98649.16;;;38.29;15.07
61086;BME280;46967;48.876;2.136;2024-02-26T02:06:57;98649.50;;;38.12;15.04
61086;BME280;46967;48.876;2.136;2024-02-26T02:09:23;98654.00;;;38.32;14.80
61086;BME280;46967;48.876;2.136;2024-02-26T02:11:48;98658.03;;;38.35;14.82
61086;BME280;46967;48.876;2.136;2024-02-26T02:14:15;98660.72;;;38.40;14.74
61086;BME280;46967;48.876;2.136;2024-02-26T02:16:40;98659.16;;;38.34;14.66
61086;BME280;46967;48.876;2.136;2024-02-26T02:19:05;98662.25;;;38.01;14.96
61086;BME280;46967;48.876;2.136;2024-02-26T02:21:31;98663.34;;;38.00;15.08
61086;BME280;46967;48.876;2.136;2024-02-26T02:23:56;98665.50;;;38.03;14.77
61086;BME280;46967;48.876;2.136;2024-02-26T02:26:22;98670.53;;;37.70;15.07
61086;BME280;46967;48.876;2.136;2024-02-26T02:28:48;98672.13;;;37.77;15.15
61086;BME280;46967;48.876;2.136;2024-02-26T02:31:14;98670.53;;;37.70;15.35
61086;BME280;46967;48.876;2.136;2024-02-26T02:33:40;98672.94;;;37.77;15.03
61086;BME280;46967;48.876;2.136;2024-02-26T02:36:05;98683.50;;;37.48;15.11
61086;BME280;46967;48.876;2.136;2024-02-26T02:38:35;98681.41;;;37.34;15.39
61086;BME280;46967;48.876;2.136;2024-02-26T02:41:00;98687.56;;;37.61;15.13
61086;BME280;46967;48.876;2.136;2024-02-26T02:43:25;98680.28;;;37.56;14.90
61086;BME280;46967;48.876;2.136;2024-02-26T02:45:51;98684.06;;;37.50;15.02
61086;BME280;46967;48.876;2.136;2024-02-26T02:48:16;98684.41;;;37.23;15.14
61086;BME280;46967;48.876;2.136;2024-02-26T02:50:42;98684.63;;;37.16;15.38
61086;BME280;46967;48.876;2.136;2024-02-26T02:53:07;98684.91;;;37.30;15.08
61086;BME280;46967;48.876;2.136;2024-02-26T02:55:32;98689.81;;;37.23;15.32
61086;BME280;46967;48.876;2.136;2024-02-26T02:57:57;98688.44;;;36.94;15.36
61086;BME280;46967;48.876;2.136;2024-02-26T03:00:23;98688.97;;;37.12;15.24
61086;BME280;46967;48.876;2.136;2024-02-26T03:02:51;98688.97;;;37.27;15.09
61086;BME280;46967;48.876;2.136;2024-02-26T03:05:16;98688.16;;;37.27;15.15
61086;BME280;46967;48.876;2.136;2024-02-26T03:07:42;98688.97;;;37.38;15.06
61086;BME280;46967;48.876;2.136;2024-02-26T03:10:07;98694.06;;;37.49;14.88
61086;BME280;46967;48.876;2.136;2024-02-26T03:12:33;98691.63;;;37.48;14.83
61086;BME280;46967;48.876;2.136;2024-02-26T03:14:59;98687.59;;;36.94;15.60
61086;BME280;46967;48.876;2.136;2024-02-26T03:17:27;98695.44;;;37.31;14.98
61086;BME280;46967;48.876;2.136;2024-02-26T03:19:53;98703.84;;;37.40;14.97
61086;BME280;46967;48.876;2.136;2024-02-26T03:22:19;98704.06;;;37.54;14.88
61086;BME280;46967;48.876;2.136;2024-02-26T03:24:45;98709.75;;;37.52;14.54
61086;BME280;46967;48.876;2.136;2024-02-26T03:27:11;98708.97;;;37.42;14.90
61086;BME280;46967;48.876;2.136;2024-02-26T03:29:37;98718.41;;;37.49;14.78
61086;BME280;46967;48.876;2.136;2024-02-26T03:32:03;98715.69;;;37.49;14.77
61086;BME280;46967;48.876;2.136;2024-02-26T03:34:28;98720.03;;;37.50;14.36
61086;BME280;46967;48.876;2.136;2024-02-26T03:36:55;98723.00;;;37.49;14.73
61086;BME280;46967;48.876;2.136;2024-02-26T03:39:20;98730.59;;;37.42;14.79
61086;BME280;46967;48.876;2.136;2024-02-26T03:41:46;98733.00;;;37.53;14.42
61086;BME280;46967;48.876;2.136;2024-02-26T03:44:11;98728.41;;;37.54;14.21
61086;BME280;46967;48.876;2.136;2024-02-26T03:46:36;98727.56;;;37.64;14.37
61086;BME280;46967;48.876;2.136;2024-02-26T03:49:01;98739.47;;;37.68;14.45
61086;BME280;46967;48.876;2.136;2024-02-26T03:51:27;98735.72;;;37.69;14.70
61086;BME280;46967;48.876;2.136;2024-02-26T03:53:59;98737.84;;;37.77;14.37
61086;BME280;46967;48.876;2.136;2024-02-26T03:56:26;98747.03;;;37.81;14.19
61086;BME280;46967;48.876;2.136;2024-02-26T03:58:51;98750.81;;;37.85;14.25
61086;BME280;46967;48.876;2.136;2024-02-26T04:01:17;98750.00;;;37.85;14.57
61086;BME280;46967;48.876;2.136;2024-02-26T04:03:42;98755.69;;;37.88;14.33
61086;BME280;46967;48.876;2.136;2024-02-26T04:06:09;98754.34;;;37.76;14.65
61086;BME280;46967;48.876;2.136;2024-02-26T04:08:46;98758.94;;;37.80;14.46
61086;BME280;46967;48.876;2.136;2024-02-26T04:11:11;98755.34;;;38.05;14.26
61086;BME280;46967;48.876;2.136;2024-02-26T04:13:37;98760.97;;;38.30;14.26
61086;BME280;46967;48.876;2.136;2024-02-26T04:16:06;98768.00;;;38.31;14.39
61086;BME280;46967;48.876;2.136;2024-02-26T04:18:32;98773.94;;;38.33;14.44
61086;BME280;46967;48.876;2.136;2024-02-26T04:20:57;98771.00;;;38.29;14.60
61086;BME280;46967;48.876;2.136;2024-02-26T04:23:23;98780.16;;;38.33;14.31
61086;BME280;46967;48.876;2.136;2024-02-26T04:25:48;98784.44;;;38.50;14.38
61086;BME280;46967;48.876;2.136;2024-02-26T04:28:14;98785.84;;;38.42;14.04
61086;BME280;46967;48.876;2.136;2024-02-26T04:30:39;98786.34;;;38.44;14.04
61086;BME280;46967;48.876;2.136;2024-02-26T04:33:04;98787.34;;;38.58;13.81
61086;BME280;46967;48.876;2.136;2024-02-26T04:35:30;98799.56;;;38.56;14.15
61086;BME280;46967;48.876;2.136;2024-02-26T04:37:56;98803.38;;;38.55;13.81
61086;BME280;46967;48.876;2.136;2024-02-26T04:40:21;98800.63;;;38.60;14.04
61086;BME280;46967;48.876;2.136;2024-02-26T04:42:46;98804.16;;;38.66;14.10
61086;BME280;46967;48.876;2.136;2024-02-26T04:45:12;98803.34;;;38.65;14.06
61086;BME280;46967;48.876;2.136;2024-02-26T04:47:37;98807.88;;;38.75;13.88
61086;BME280;46967;48.876;2.136;2024-02-26T04:50:03;98811.47;;;38.60;14.09
61086;BME280;46967;48.876;2.136;2024-02-26T04:52:28;98808.50;;;38.56;14.09
61086;BME280;46967;48.876;2.136;2024-02-26T04:54:54;98818.00;;;38.64;14.05
61086;BME280;46967;48.876;2.136;2024-02-26T04:57:21;98822.84;;;38.67;13.91
61086;BME280;46967;48.876;2.136;2024-02-26T04:59:46;98831.91;;;38.92;13.79
61086;BME280;46967;48.876;2.136;2024-02-26T05:02:12;98831.38;;;38.90;13.67
61086;BME280;46967;48.876;2.136;2024-02-26T05:04:37;98833.31;;;38.84;13.63
61086;BME280;46967;48.876;2.136;2024-02-26T05:07:03;98831.97;;;38.76;13.76
61086;BME280;46967;48.876;2.136;2024-02-26T05:09:29;98840.88;;;38.87;13.61
61086;BME280;46967;48.876;2.136;2024-02-26T05:11:54;98834.09;;;38.90;13.95
61086;BME280;46967;48.876;2.136;2024-02-26T05:14:19;98836.63;;;39.21;13.70
61086;BME280;46967;48.876;2.136;2024-02-26T05:16:45;98846.19;;;39.47;13.27
61086;BME280;46967;48.876;2.136;2024-02-26T05:19:10;98839.66;;;39.48;13.14
61086;BME280;46967;48.876;2.136;2024-02-26T05:21:36;98846.06;;;39.28;13.28
61086;BME280;46967;48.876;2.136;2024-02-26T05:24:01;98847.97;;;39.28;13.55
61086;BME280;46967;48.876;2.136;2024-02-26T05:26:26;98853.72;;;39.21;13.79
61086;BME280;46967;48.876;2.136;2024-02-26T05:28:52;98854.44;;;39.32;13.39
61086;BME280;46967;48.876;2.136;2024-02-26T05:31:17;98852.44;;;39.43;13.32
61086;BME280;46967;48.876;2.136;2024-02-26T05:33:43;98863.13;;;39.34;13.45
61086;BME280;46967;48.876;2.136;2024-02-26T05:36:09;98872.00;;;39.40;13.23
61086;BME280;46967;48.876;2.136;2024-02-26T05:38:34;98867.22;;;39.66;12.94
61086;BME280;46967;48.876;2.136;2024-02-26T05:40:59;98872.81;;;39.80;12.92
61086;BME280;46967;48.876;2.136;2024-02-26T05:43:25;98877.31;;;39.90;13.16
61086;BME280;46967;48.876;2.136;2024-02-26T05:45:51;98877.03;;;39.91;13.14
61086;BME280;46967;48.876;2.136;2024-02-26T05:48:17;98871.22;;;40.03;12.70
61086;BME280;46967;48.876;2.136;2024-02-26T05:50:44;98880.53;;;39.97;13.15
61086;BME280;46967;48.876;2.136;2024-02-26T05:53:09;98878.06;;;39.95;13.15
61086;BME280;46967;48.876;2.136;2024-02-26T05:55:35;98883.94;;;39.78;12.72
61086;BME280;46967;48.876;2.136;2024-02-26T05:58:00;98897.41;;;39.54;13.06
61086;BME280;46967;48.876;2.136;2024-02-26T06:00:25;98897.69;;;39.58;13.21
61086;BME280;46967;48.876;2.136;2024-02-26T06:02:50;98901.25;;;39.82;13.10
61086;BME280;46967;48.876;2.136;2024-02-26T06:05:16;98903.69;;;39.84;13.08
61086;BME280;46967;48.876;2.136;2024-02-26T06:07:41;98911.47;;;39.96;12.67
61086;BME280;46967;48.876;2.136;2024-02-26T06:10:07;98912.66;;;39.84;13.00
61086;BME280;46967;48.876;2.136;2024-02-26T06:12:35;98916.97;;;39.85;13.24
61086;BME280;46967;48.876;2.136;2024-02-26T06:15:01;98922.06;;;39.92;12.70
61086;BME280;46967;48.876;2.136;2024-02-26T06:17:26;98930.69;;;40.05;12.99
61086;BME280;46967;48.876;2.136;2024-02-26T06:19:51;98930.41;;;40.06;12.56
61086;BME280;46967;48.876;2.136;2024-02-26T06:22:17;98928.03;;;39.99;12.72
61086;BME280;46967;48.876;2.136;2024-02-26T06:24:42;98938.16;;;39.83;13.00
61086;BME280;46967;48.876;2.136;2024-02-26T06:27:07;98943.88;;;39.82;12.87
61086;BME280;46967;48.876;2.136;2024-02-26T06:29:33;98948.47;;;39.87;12.80
61086;BME280;46967;48.876;2.136;2024-02-26T06:31:59;98950.94;;;39.83;13.10
61086;BME280;46967;48.876;2.136;2024-02-26T06:34:24;98961.25;;;39.81;12.98
61086;BME280;46967;48.876;2.136;2024-02-26T06:36:52;98963.91;;;39.91;12.86
61086;BME280;46967;48.876;2.136;2024-02-26T06:39:17;98966.81;;;39.65;13.14
61086;BME280;46967;48.876;2.136;2024-02-26T06:41:44;98964.78;;;39.42;13.49
61086;BME280;46967;48.876;2.136;2024-02-26T06:44:11;98968.75;;;39.60;13.07
61086;BME280;46967;48.876;2.136;2024-02-26T06:46:37;98976.78;;;39.30;13.20
61086;BME280;46967;48.876;2.136;2024-02-26T06:49:02;98980.88;;;39.18;13.53
61086;BME280;46967;48.876;2.136;2024-02-26T06:51:27;98987.97;;;39.13;13.94
61086;BME280;46967;48.876;2.136;2024-02-26T06:53:53;98989.84;;;39.13;13.54
61086;BME280;46967;48.876;2.136;2024-02-26T06:56:18;98990.84;;;39.33;13.64
61086;BME280;46967;48.876;2.136;2024-02-26T06:58:44;98988.81;;;39.59;13.21
61086;BME280;46967;48.876;2.136;2024-02-26T07:01:11;98997.94;;;39.78;12.98
61086;BME280;46967;48.876;2.136;2024-02-26T07:03:36;98994.53;;;39.97;12.83
61086;BME280;46967;48.876;2.136;2024-02-26T07:06:02;99007.34;;;39.91;12.89
61086;BME280;46967;48.876;2.136;2024-02-26T07:08:27;99008.38;;;39.95;12.80
61086;BME280;46967;48.876;2.136;2024-02-26T07:10:53;99007.22;;;40.07;12.99
61086;BME280;46967;48.876;2.136;2024-02-26T07:13:18;99009.09;;;40.41;12.92
61086;BME280;46967;48.876;2.136;2024-02-26T07:15:44;99023.34;;;39.93;13.17
61086;BME280;46967;48.876;2.136;2024-02-26T07:18:09;99020.34;;;39.94;12.87
61086;BME280;46967;48.876;2.136;2024-02-26T07:20:35;99030.78;;;39.77;13.34
61086;BME280;46967;48.876;2.136;2024-02-26T07:23:00;99032.97;;;39.70;13.37
61086;BME280;46967;48.876;2.136;2024-02-26T07:25:26;99032.09;;;39.84;13.42
61086;BME280;46967;48.876;2.136;2024-02-26T07:27:51;99040.19;;;39.90;13.04
61086;BME280;46967;48.876;2.136;2024-02-26T07:30:16;99043.75;;;39.85;13.20
61086;BME280;46967;48.876;2.136;2024-02-26T07:32:45;99046.03;;;39.67;13.50
61086;BME280;46967;48.876;2.136;2024-02-26T07:35:10;99050.41;;;39.58;13.53
61086;BME280;46967;48.876;2.136;2024-02-26T07:37:36;99051.94;;;39.80;13.54
61086;BME280;46967;48.876;2.136;2024-02-26T07:40:01;99053.69;;;40.05;13.32
61086;BME280;46967;48.876;2.136;2024-02-26T07:42:26;99050.19;;;39.99;13.25
61086;BME280;46967;48.876;2.136;2024-02-26T07:44:51;99063.81;;;39.84;13.28
61086;BME280;46967;48.876;2.136;2024-02-26T07:47:18;99067.66;;;39.78;13.70
61086;BME280;46967;48.876;2.136;2024-02-26T07:49:43;99071.16;;;39.83;13.45
61086;BME280;46967;48.876;2.136;2024-02-26T07:52:08;99073.50;;;39.95;13.54
61086;BME280;46967;48.876;2.136;2024-02-26T07:54:34;99081.97;;;39.99;13.25
61086;BME280;46967;48.876;2.136;2024-02-26T07:56:59;99083.78;;;39.64;13.87
61086;BME280;46967;48.876;2.136;2024-02-26T07:59:24;99082.53;;;39.30;14.17
61086;BME280;46967;48.876;2.136;2024-02-26T08:01:50;99091.00;;;38.98;14.42
61086;BME280;46967;48.876;2.136;2024-02-26T08:04:16;99090.44;;;39.06;14.31
61086;BME280;46967;48.876;2.136;2024-02-26T08:06:41;99100.72;;;39.25;14.28
61086;BME280;46967;48.876;2.136;2024-02-26T08:09:08;99101.28;;;39.17;14.46
61086;BME280;46967;48.876;2.136;2024-02-26T08:11:33;99098.31;;;39.03;14.45
61086;BME280;46967;48.876;2.136;2024-02-26T08:13:58;99102.97;;;38.76;14.65
61086;BME280;46967;48.876;2.136;2024-02-26T08:16:24;99104.03;;;38.96;14.58
61086;BME280;46967;48.876;2.136;2024-02-26T08:18:50;99107.28;;;39.08;14.20
61086;BME280;46967;48.876;2.136;2024-02-26T08:21:15;99111.88;;;38.98;14.54
61086;BME280;46967;48.876;2.136;2024-02-26T08:23:43;99112.16;;;38.86;14.71
61086;BME280;46967;48.876;2.136;2024-02-26T08:26:08;99111.66;;;38.73;14.86
61086;BME280;46967;48.876;2.136;2024-02-26T08:28:37;99114.91;;;38.70;14.59
61086;BME280;46967;48.876;2.136;2024-02-26T08:31:02;99116.22;;;38.47;14.97
61086;BME280;46967;48.876;2.136;2024-02-26T08:33:28;99127.34;;;38.51;15.11
61086;BME280;46967;48.876;2.136;2024-02-26T08:35:53;99128.19;;;38.62;14.91
61086;BME280;46967;48.876;2.136;2024-02-26T08:38:18;99133.84;;;38.34;15.26
61086;BME280;46967;48.876;2.136;2024-02-26T08:40:44;99139.81;;;38.72;14.60
61086;BME280;46967;48.876;2.136;2024-02-26T08:43:09;99140.09;;;38.76;14.80
61086;BME280;46967;48.876;2.136;2024-02-26T08:45:34;99146.59;;;38.75;14.78
61086;BME280;46967;48.876;2.136;2024-02-26T08:48:00;99151.72;;;38.76;14.88
61086;BME280;46967;48.876;2.136;2024-02-26T08:50:25;99152.81;;;38.81;15.01
61086;BME280;46967;48.876;2.136;2024-02-26T08:52:51;99160.41;;;38.99;14.90
61086;BME280;46967;48.876;2.136;2024-02-26T08:55:18;99161.78;;;38.86;14.90
61086;BME280;46967;48.876;2.136;2024-02-26T08:57:43;99168.81;;;38.82;14.84
61086;BME280;46967;48.876;2.136;2024-02-26T09:00:09;99175.81;;;38.57;14.99
61086;BME280;46967;48.876;2.136;2024-02-26T09:02:35;99178.00;;;38.45;15.15
61086;BME280;46967;48.876;2.136;2024-02-26T09:05:04;99183.13;;;38.26;15.03
61086;BME280;46967;48.876;2.136;2024-02-26T09:07:29;99186.34;;;38.23;15.23
61086;BME280;46967;48.876;2.136;2024-02-26T09:09:55;99190.88;;;38.12;15.84
61086;BME280;46967;48.876;2.136;2024-02-26T09:12:20;99198.03;;;38.44;15.29
61086;BME280;46967;48.876;2.136;2024-02-26T09:14:46;99191.78;;;38.38;15.05
61086;BME280;46967;48.876;2.136;2024-02-26T09:17:11;99190.94;;;38.22;15.18
61086;BME280;46967;48.876;2.136;2024-02-26T09:19:36;99203.03;;;37.99;15.29
61086;BME280;46967;48.876;2.136;2024-02-26T09:22:03;99209.97;;;38.48;15.06
61086;BME280;46967;48.876;2.136;2024-02-26T09:24:28;99213.16;;;38.35;15.34
61086;BME280;46967;48.876;2.136;2024-02-26T09:26:55;99225.59;;;38.20;15.47
61086;BME280;46967;48.876;2.136;2024-02-26T09:29:20;99219.81;;;38.01;15.61
61086;BME280;46967;48.876;2.136;2024-02-26T09:31:45;99220.97;;;38.21;15.25
61086;BME280;46967;48.876;2.136;2024-02-26T09:34:13;99218.63;;;38.50;15.25
61086;BME280;46967;48.876;2.136;2024-02-26T09:36:38;99229.47;;;38.55;15.04
61086;BME280;46967;48.876;2.136;2024-02-26T09:39:03;99237.38;;;38.83;14.96
61086;BME280;46967;48.876;2.136;2024-02-26T09:41:30;99237.31;;;38.52;15.23
61086;BME280;46967;48.876;2.136;2024-02-26T09:43:57;99247.34;;;38.51;15.26
61086;BME280;46967;48.876;2.136;2024-02-26T09:46:23;99250.94;;;38.67;14.85
61086;BME280;46967;48.876;2.136;2024-02-26T09:48:50;99247.56;;;38.34;15.38
61086;BME280;46967;48.876;2.136;2024-02-26T09:51:16;99248.09;;;38.31;15.28
61086;BME280;46967;48.876;2.136;2024-02-26T09:53:46;99264.41;;;38.47;15.22
61086;BME280;46967;48.876;2.136;2024-02-26T09:56:13;99267.16;;;37.94;15.59
61086;BME280;46967;48.876;2.136;2024-02-26T09:58:39;99268.66;;;38.22;15.54
61086;BME280;46967;48.876;2.136;2024-02-26T10:01:11;99268.34;;;38.13;15.47
61086;BME280;46967;48.876;2.136;2024-02-26T10:03:41;99284.16;;;38.42;15.29
61086;BME280;46967;48.876;2.136;2024-02-26T10:06:11;99277.13;;;38.46;15.43
61086;BME280;46967;48.876;2.136;2024-02-26T10:08:36;99290.47;;;38.68;15.18
61086;BME280;46967;48.876;2.136;2024-02-26T10:11:03;99292.03;;;38.54;15.20
61086;BME280;46967;48.876;2.136;2024-02-26T10:13:29;99296.34;;;38.39;15.74
61086;BME280;46967;48.876;2.136;2024-02-26T10:15:55;99301.41;;;38.20;15.76
61086;BME280;46967;48.876;2.136;2024-02-26T10:18:20;99309.31;;;38.32;15.49
61086;BME280;46967;48.876;2.136;2024-02-26T10:21:03;99316.50;;;38.11;15.55
61086;BME280;46967;48.876;2.136;2024-02-26T10:23:28;99315.31;;;37.86;16.07
61086;BME280;46967;48.876;2.136;2024-02-26T10:25:54;99322.47;;;38.13;15.63
61086;BME280;46967;48.876;2.136;2024-02-26T10:28:20;99323.53;;;38.12;15.65
61086;BME280;46967;48.876;2.136;2024-02-26T10:30:45;99332.94;;;38.47;15.41
61086;BME280;46967;48.876;2.136;2024-02-26T10:33:12;99335.72;;;38.63;15.16
61086;BME280;46967;48.876;2.136;2024-02-26T10:35:38;99337.81;;;38.50;15.60
61086;BME280;46967;48.876;2.136;2024-02-26T10:38:06;99335.72;;;38.73;15.38
61086;BME280;46967;48.876;2.136;2024-02-26T10:40:32;99342.22;;;38.67;15.39
61086;BME280;46967;48.876;2.136;2024-02-26T10:42:58;99340.88;;;38.69;15.35
61086;BME280;46967;48.876;2.136;2024-02-26T10:45:23;99353.81;;;38.52;15.27
61086;BME280;46967;48.876;2.136;2024-02-26T10:47:48;99355.44;;;38.58;15.36
61086;BME280;46967;48.876;2.136;2024-02-26T10:50:14;99354.97;;;38.66;15.23
61086;BME280;46967;48.876;2.136;2024-02-26T10:52:42;99372.09;;;36.94;16.67
61086;BME280;46967;48.876;2.136;2024-02-26T10:55:08;99374.88;;;36.55;16.51
61086;BME280;46967;48.876;2.136;2024-02-26T10:57:39;99385.75;;;37.10;15.80
61086;BME280;46967;48.876;2.136;2024-02-26T11:00:05;99380.22;;;36.72;16.03
61086;BME280;46967;48.876;2.136;2024-02-26T11:02:34;99386.56;;;36.39;16.38
61086;BME280;46967;48.876;2.136;2024-02-26T11:05:03;99397.56;;;35.81;16.71
61086;BME280;46967;48.876;2.136;2024-02-26T11:07:30;99394.72;;;35.25;17.32
61086;BME280;46967;48.876;2.136;2024-02-26T11:09:56;99402.75;;;35.54;16.96
61086;BME280;46967;48.876;2.136;2024-02-26T11:12:22;99408.59;;;35.97;16.49
61086;BME280;46967;48.876;2.136;2024-02-26T11:14:50;99420.72;;;35.19;17.22
61086;BME280;46967;48.876;2.136;2024-02-26T11:17:20;99418.06;;;36.16;16.45
61086;BME280;46967;48.876;2.136;2024-02-26T11:19:47;99428.03;;;35.65;16.79
61086;BME280;46967;48.876;2.136;2024-02-26T11:22:14;99429.66;;;34.56;17.70
61086;BME280;46967;48.876;2.136;2024-02-26T11:24:40;99434.34;;;34.72;17.51
61086;BME280;46967;48.876;2.136;2024-02-26T11:27:09;99439.09;;;34.94;17.51
61086;BME280;46967;48.876;2.136;2024-02-26T11:29:47;99439.50;;;34.62;17.59
61086;BME280;46967;48.876;2.136;2024-02-26T11:32:12;99442.09;;;35.09;17.12
61086;BME280;46967;48.876;2.136;2024-02-26T11:34:38;99454.59;;;35.73;16.54
61086;BME280;46967;48.876;2.136;2024-02-26T11:37:24;99447.91;;;35.30;16.99
61086;BME280;46967;48.876;2.136;2024-02-26T11:39:51;99453.03;;;33.84;18.30
61086;BME280;46967;48.876;2.136;2024-02-26T11:42:17;99465.88;;;34.36;17.83
61086;BME280;46967;48.876;2.136;2024-02-26T11:44:43;99461.38;;;34.89;16.96
61086;BME280;46967;48.876;2.136;2024-02-26T11:47:22;99467.81;;;34.17;17.85
61086;BME280;46967;48.876;2.136;2024-02-26T11:49:48;99465.16;;;34.53;17.48
61086;BME280;46967;48.876;2.136;2024-02-26T11:52:15;99472.59;;;34.98;17.02
61086;BME280;46967;48.876;2.136;2024-02-26T11:54:53;99464.34;;;34.52;17.25
61086;BME280;46967;48.876;2.136;2024-02-26T11:57:38;99479.56;;;34.58;17.19
61086;BME280;46967;48.876;2.136;2024-02-26T12:05:14;99491.25;;;34.64;17.15
61086;BME280;46967;48.876;2.136;2024-02-26T12:07:53;99495.91;;;35.04;16.93
61086;BME280;46967;48.876;2.136;2024-02-26T12:10:27;99494.88;;;34.93;16.91
61086;BME280;46967;48.876;2.136;2024-02-26T12:13:02;99496.66;;;34.52;17.27
61086;BME280;46967;48.876;2.136;2024-02-26T12:15:38;99491.47;;;34.62;17.30
61086;BME280;46967;48.876;2.136;2024-02-26T12:18:06;99507.78;;;34.91;17.14
61086;BME280;46967;48.876;2.136;2024-02-26T12:20:32;99500.41;;;34.39;17.37
61086;BME280;46967;48.876;2.136;2024-02-26T12:22:58;99512.53;;;33.76;17.94
61086;BME280;46967;48.876;2.136;2024-02-26T12:25:26;99505.50;;;35.00;17.04
61086;BME280;46967;48.876;2.136;2024-02-26T12:27:52;99522.63;;;34.70;17.09
61086;BME280;46967;48.876;2.136;2024-02-26T12:30:18;99527.59;;;34.07;17.35
61086;BME280;46967;48.876;2.136;2024-02-26T12:32:44;99527.72;;;34.01;17.52
61086;BME280;46967;48.876;2.136;2024-02-26T12:35:10;99536.81;;;34.11;17.52
61086;BME280;46967;48.876;2.136;2024-02-26T12:37:35;99533.22;;;34.18;17.55
61086;BME280;46967;48.876;2.136;2024-02-26T12:40:04;99536.53;;;33.78;17.74
61086;BME280;46967;48.876;2.136;2024-02-26T12:42:32;99546.28;;;34.80;17.07
61086;BME280;46967;48.876;2.136;2024-02-26T12:44:58;99560.31;;;34.23;17.38
61086;BME280;46967;48.876;2.136;2024-02-26T12:47:24;99545.09;;;35.11;16.68
61086;BME280;46967;48.876;2.136;2024-02-26T12:49:49;99551.19;;;35.07;16.78
61086;BME280;46967;48.876;2.136;2024-02-26T12:52:16;99554.63;;;34.78;16.70
61086;BME280;46967;48.876;2.136;2024-02-26T12:54:42;99556.59;;;34.36;17.29
61086;BME280;46967;48.876;2.136;2024-02-26T12:57:08;99568.06;;;34.55;17.03
61086;BME280;46967;48.876;2.136;2024-02-26T12:59:35;99560.53;;;33.91;17.62